Weiner, Arkansas
Current Conditions -  °F | °C
As of 4:56 AM on Monday 20 Oct 2014 (Local Time) from KM19 Reporting Station
Clear Clear  
Wind Chill: 47°   Ceiling: Unl
Heat Index: 49°   Visibility: 10mi
Dew Point: 46°   Wind: 5mph
Humidity: 89%   Direction: NA
Pressure: 30.08"   Gusts: NA
Location:  35.62°N, 90.9°W
Report Text: KM19 200956Z AUTO VRB04KT 10SM CLR 09/08 A3008 RMK AO2 T00940077 SLP185
Loading
Personal Weather Stations






























Interactive Weather Map
Tropical Storm Tracking
New forecast layout! Learn more

10-Day Weather Forecast

Advertisements
Track Severe Weather on mobile